Time;durP1;ratioP1;P1;durP2;ratioP2;P2;SDS_P1;SDS_P2;PMS_P1;PMS_P2;Temp;Humidity;BMP_temperature;BMP_pressure;BME280_temperature;BME280_humidity;BME280_pressure;Samples;Min_cycle;Max_cycle;Signal;HPM_P1;HPM_P2
2022/10/20 00:01:40;;;;;;;;;;;;;;;5.42;68.69;99571.09;1690333;84;20118;-70
2022/10/20 00:04:07;;;;;;;;;;;;;;;5.40;68.74;99569.56;1699376;84;21290;-67
2022/10/20 00:06:34;;;;;;;;;;;;;;;5.37;68.78;99573.30;1703051;84;20107;-70
2022/10/20 00:09:01;;;;;;;;;;;;;;;5.35;68.82;99571.77;1684199;84;20110;-71
2022/10/20 00:11:27;;;;;;;;;;;;;;;5.35;68.97;99578.37;1688528;85;20079;-70
2022/10/20 00:13:54;;;;;;;;;;;;;;;5.34;69.07;99580.67;1671360;85;20086;-71
2022/10/20 00:16:21;;;;;;;;;;;;;;;5.30;69.09;99582.73;1687792;85;20580;-69
2022/10/20 00:18:48;;;;;;;;;;;;;;;5.26;69.10;99582.67;1680961;84;20434;-72
2022/10/20 00:21:17;;;;;;;;;;;;;;;5.23;69.25;99582.93;1675222;85;20461;-72
2022/10/20 00:23:43;;;;;;;;;;;;;;;5.23;69.41;99579.45;1672790;85;20102;-70
2022/10/20 00:26:12;;;;;;;;;;;;;;;5.21;69.42;99583.55;1698478;84;20121;-69
2022/10/20 00:28:40;;;;;;;;;;;;;;;5.20;69.51;99583.67;1683898;83;20086;-71
2022/10/20 00:31:07;;;;;;;;;;;;;;;5.17;69.68;99582.14;1689899;84;20074;-70
2022/10/20 00:33:33;;;;;;;;;;;;;;;5.17;69.71;99583.94;1696529;84;20137;-67
2022/10/20 00:36:02;;;;;;;;;;;;;;;5.14;69.75;99589.47;1678107;84;20130;-70
2022/10/20 00:38:30;;;;;;;;;;;;;;;5.09;69.74;99587.23;1696472;84;20074;-70
2022/10/20 00:40:58;;;;;;;;;;;;;;;5.05;69.82;99589.80;1693563;84;21108;-70
2022/10/20 00:43:42;;;;;;;;;;;;;;;5.02;70.01;99584.80;1673401;84;20093;-72
2022/10/20 00:46:10;;;;;;;;;;;;;;;5.03;70.10;99588.27;1696356;84;20085;-71
2022/10/20 00:48:36;;;;;;;;;;;;;;;4.99;70.15;99585.05;1665666;85;20115;-69
2022/10/20 00:51:02;;;;;;;;;;;;;;;4.96;70.22;99589.27;1677930;85;20194;-71
2022/10/20 00:53:29;;;;;;;;;;;;;;;4.93;70.43;99590.36;1689564;85;21124;-69
2022/10/20 00:55:57;;;;;;;;;;;;;;;4.92;70.52;99590.52;1690483;85;20087;-69
2022/10/20 00:58:23;;;;;;;;;;;;;;;4.92;70.62;99587.88;1667794;85;20462;-71
2022/10/20 01:00:51;;;;;;;;;;;;;;;4.93;70.69;99594.80;1689369;85;20087;-69
2022/10/20 01:03:46;;;;;;;;;;;;;;;4.90;70.63;99596.41;1690975;84;20075;-67
2022/10/20 01:06:13;;;;;;;;;;;;;;;4.88;70.73;99590.41;1692759;84;21093;-67
2022/10/20 01:08:40;;;;;;;;;;;;;;;4.86;70.83;99597.14;1682642;84;20196;-70
2022/10/20 01:11:19;;;;;;;;;;;;;;;4.83;70.84;99598.72;1666217;85;20437;-67
2022/10/20 01:14:14;;;;;;;;;;;;;;;4.82;70.93;99593.59;1711297;83;20130;-68
2022/10/20 01:16:58;;;;;;;;;;;;;;;4.80;71.04;99596.81;1695980;83;20175;-71
2022/10/20 01:19:49;;;;;;;;;;;;;;;4.76;71.14;99599.38;1704982;83;21044;-69
2022/10/20 01:22:36;;;;;;;;;;;;;;;4.73;71.24;99605.74;1643152;84;20122;-67
2022/10/20 01:25:18;;;;;;;;;;;;;;;4.69;71.32;99613.54;1669799;85;20194;-69
2022/10/20 01:28:05;;;;;;;;;;;;;;;4.65;71.43;99604.71;1670934;83;20162;-70
2022/10/20 01:30:31;;;;;;;;;;;;;;;4.62;71.53;99607.13;1707601;83;20151;-70
2022/10/20 01:33:16;;;;;;;;;;;;;;;4.60;71.72;99607.75;1714048;83;21253;-68
2022/10/20 01:35:49;;;;;;;;;;;;;;;4.61;71.84;99605.48;1690615;83;20589;-69
2022/10/20 01:38:36;;;;;;;;;;;;;;;4.59;71.85;99617.92;1720508;83;20093;-67
2022/10/20 01:41:14;;;;;;;;;;;;;;;4.57;71.88;99621.17;1700263;83;20081;-71
2022/10/20 01:43:41;;;;;;;;;;;;;;;4.54;71.88;99620.58;1720105;83;20421;-70
2022/10/20 01:46:07;;;;;;;;;;;;;;;4.49;71.94;99613.08;1720873;83;21220;-72
2022/10/20 01:48:36;;;;;;;;;;;;;;;4.48;72.02;99615.38;1716233;83;20105;-72
2022/10/20 01:51:02;;;;;;;;;;;;;;;4.47;72.12;99617.64;1706635;83;20083;-68
2022/10/20 01:53:29;;;;;;;;;;;;;;;4.47;72.18;99613.69;1715570;83;20097;-71
2022/10/20 01:55:56;;;;;;;;;;;;;;;4.46;72.30;99625.18;1664153;85;20119;-70
2022/10/20 01:58:43;;;;;;;;;;;;;;;4.44;72.37;99626.27;1704066;83;21169;-71
2022/10/20 02:01:16;;;;;;;;;;;;;;;4.55;72.15;99620.95;1689888;83;20097;-71
2022/10/20 02:03:53;;;;;;;;;;;;;;;4.56;72.07;99626.59;1720692;83;20114;-71
2022/10/20 02:06:41;;;;;;;;;;;;;;;4.51;72.16;99626.14;1709127;83;20083;-72
2022/10/20 02:09:21;;;;;;;;;;;;;;;4.44;72.40;99630.22;1666049;84;20433;-71
2022/10/20 02:11:53;;;;;;;;;;;;;;;4.40;72.61;99629.66;1695335;83;21129;-70
2022/10/20 02:14:21;;;;;;;;;;;;;;;4.39;72.71;99634.56;1680860;85;20174;-71
2022/10/20 02:16:54;;;;;;;;;;;;;;;4.36;72.72;99642.72;1699754;84;20101;-70
2022/10/20 02:19:22;;;;;;;;;;;;;;;4.35;72.75;99645.02;1691153;84;20082;-71
2022/10/20 02:21:49;;;;;;;;;;;;;;;4.32;72.75;99646.58;1673479;84;20455;-68
2022/10/20 02:24:15;;;;;;;;;;;;;;;4.30;72.82;99657.73;1672434;84;21163;-69
2022/10/20 02:26:41;;;;;;;;;;;;;;;4.29;72.92;99648.14;1697826;84;20128;-68
2022/10/20 02:29:12;;;;;;;;;;;;;;;4.29;72.97;99657.36;1676564;84;20174;-70
2022/10/20 02:31:38;;;;;;;;;;;;;;;4.29;73.03;99661.31;1681336;84;21077;-71
2022/10/20 02:34:04;;;;;;;;;;;;;;;4.30;73.06;99666.95;1698415;84;20095;-67
2022/10/20 02:36:35;;;;;;;;;;;;;;;4.30;73.03;99665.63;1686697;84;21244;-70
2022/10/20 02:39:01;;;;;;;;;;;;;;;4.30;73.03;99676.17;1676828;84;20103;-68
2022/10/20 02:41:28;;;;;;;;;;;;;;;4.28;73.02;99670.16;1679163;84;20127;-67
2022/10/20 02:43:54;;;;;;;;;;;;;;;4.27;73.03;99679.05;1692570;84;20098;-68
2022/10/20 02:46:21;;;;;;;;;;;;;;;4.25;73.04;99679.16;1670446;84;20498;-70
2022/10/20 02:48:47;;;;;;;;;;;;;;;4.25;73.09;99680.95;1680271;84;21842;-70
2022/10/20 02:51:16;;;;;;;;;;;;;;;4.24;73.12;99686.72;1698665;84;20444;-69
2022/10/20 02:53:43;;;;;;;;;;;;;;;4.25;73.09;99692.80;1686850;84;20090;-67
2022/10/20 02:56:10;;;;;;;;;;;;;;;4.24;73.09;99692.46;1691621;84;20868;-70
2022/10/20 02:58:37;;;;;;;;;;;;;;;4.21;73.01;99689.59;1678534;83;20074;-67
2022/10/20 03:01:03;;;;;;;;;;;;;;;4.19;73.08;99688.89;1697882;84;21165;-67
2022/10/20 03:03:31;;;;;;;;;;;;;;;4.19;73.11;99698.59;1691825;83;20090;-69
2022/10/20 03:05:57;;;;;;;;;;;;;;;4.18;73.12;99699.53;1679584;84;20150;-67
2022/10/20 03:08:25;;;;;;;;;;;;;;;4.17;73.10;99696.56;1680034;84;20094;-70
2022/10/20 03:10:52;;;;;;;;;;;;;;;4.15;73.09;99698.46;1669156;84;20136;-69
2022/10/20 03:13:18;;;;;;;;;;;;;;;4.12;73.08;99694.78;1682179;84;21242;-67
2022/10/20 03:15:45;;;;;;;;;;;;;;;4.10;73.12;99695.37;1699405;84;20107;-68
2022/10/20 03:18:13;;;;;;;;;;;;;;;4.08;73.21;99694.19;1692710;84;20496;-68
2022/10/20 03:20:41;;;;;;;;;;;;;;;4.06;73.26;99700.06;1690965;84;20117;-71
2022/10/20 03:23:08;;;;;;;;;;;;;;;4.05;73.30;99705.44;1664742;84;20122;-71
2022/10/20 03:25:34;;;;;;;;;;;;;;;4.04;73.37;99709.05;1683357;84;21116;-71
2022/10/20 03:28:00;;;;;;;;;;;;;;;4.01;73.46;99710.13;1692024;84;20101;-68
2022/10/20 03:30:27;;;;;;;;;;;;;;;4.01;73.53;99706.66;1673388;84;20158;-68
2022/10/20 03:32:54;;;;;;;;;;;;;;;4.00;73.53;99711.55;1703533;84;20131;-71
2022/10/20 03:35:21;;;;;;;;;;;;;;;3.95;73.51;99716.35;1677852;84;20122;-69
2022/10/20 03:37:48;;;;;;;;;;;;;;;3.91;73.55;99725.47;1677035;84;22027;-68
2022/10/20 03:40:15;;;;;;;;;;;;;;;3.87;73.65;99726.18;1675316;84;20173;-69
2022/10/20 03:42:41;;;;;;;;;;;;;;;3.84;73.73;99721.63;1679417;84;20082;-68
2022/10/20 03:45:09;;;;;;;;;;;;;;;3.80;73.79;99725.47;1707351;84;20122;-68
2022/10/20 03:47:35;;;;;;;;;;;;;;;3.78;73.90;99719.50;1706467;84;20091;-67
2022/10/20 03:50:02;;;;;;;;;;;;;;;3.74;73.90;99722.38;1696534;84;21115;-67
2022/10/20 03:52:29;;;;;;;;;;;;;;;3.71;73.99;99725.71;1686708;84;20110;-68
2022/10/20 03:54:55;;;;;;;;;;;;;;;3.69;74.12;99727.64;1703415;84;20445;-68
2022/10/20 03:57:21;;;;;;;;;;;;;;;3.68;74.23;99728.58;1709129;84;20679;-69
2022/10/20 03:59:47;;;;;;;;;;;;;;;3.67;74.36;99735.66;1685151;84;20442;-71
2022/10/20 04:02:20;;;;;;;;;;;;;;;3.66;74.40;99738.39;1689926;84;22028;-68
2022/10/20 04:04:47;;;;;;;;;;;;;;;3.65;74.49;99734.92;1662919;84;20106;-67
2022/10/20 04:07:14;;;;;;;;;;;;;;;3.65;74.50;99735.43;1677060;84;20474;-69
2022/10/20 04:09:41;;;;;;;;;;;;;;;3.62;74.59;99731.21;1709459;83;20453;-70
2022/10/20 04:12:09;;;;;;;;;;;;;;;3.62;74.67;99733.03;1683930;84;20136;-67
2022/10/20 04:14:35;;;;;;;;;;;;;;;3.59;74.68;99734.11;1704012;84;21167;-67
2022/10/20 04:17:01;;;;;;;;;;;;;;;3.56;74.70;99730.88;1684418;84;20109;-71
2022/10/20 04:19:28;;;;;;;;;;;;;;;3.51;74.68;99732.55;1694685;84;20081;-70
2022/10/20 04:21:54;;;;;;;;;;;;;;;3.47;74.73;99724.53;1675675;84;20141;-69
2022/10/20 04:24:21;;;;;;;;;;;;;;;3.44;74.90;99732.66;1695655;84;20093;-70
2022/10/20 04:26:47;;;;;;;;;;;;;;;3.43;75.03;99730.16;1675698;84;21165;-68
2022/10/20 04:29:14;;;;;;;;;;;;;;;3.43;75.21;99729.68;1707657;83;20158;-70
2022/10/20 04:31:40;;;;;;;;;;;;;;;3.42;75.29;99735.88;1696922;83;20157;-68
2022/10/20 04:34:07;;;;;;;;;;;;;;;3.42;75.34;99733.73;1676195;84;20126;-68
2022/10/20 04:36:33;;;;;;;;;;;;;;;3.42;75.45;99736.36;1694988;84;20528;-67
2022/10/20 04:39:00;;;;;;;;;;;;;;;3.43;75.58;99741.52;1693606;84;21331;-67
2022/10/20 04:41:27;;;;;;;;;;;;;;;3.44;75.63;99732.66;1713822;83;20085;-68
2022/10/20 04:43:53;;;;;;;;;;;;;;;3.45;75.67;99742.70;1701608;83;20169;-67
2022/10/20 04:46:19;;;;;;;;;;;;;;;3.45;75.71;99732.18;1703698;83;20126;-70
2022/10/20 04:48:46;;;;;;;;;;;;;;;3.47;75.74;99739.47;1680430;83;20093;-68
2022/10/20 04:51:13;;;;;;;;;;;;;;;3.49;75.70;99734.47;1688138;84;21174;-70
2022/10/20 04:53:40;;;;;;;;;;;;;;;3.51;75.70;99743.08;1687665;84;20170;-69
2022/10/20 04:56:07;;;;;;;;;;;;;;;3.54;75.68;99740.21;1674444;84;20415;-68
2022/10/20 04:58:34;;;;;;;;;;;;;;;3.51;75.69;99739.12;1687897;84;20134;-70
2022/10/20 05:01:02;;;;;;;;;;;;;;;3.57;75.84;99744.39;1703721;84;20123;-70
2022/10/20 05:03:28;;;;;;;;;;;;;;;3.66;76.04;99748.45;1714207;83;21309;-69
2022/10/20 05:05:54;;;;;;;;;;;;;;;3.81;76.15;99753.48;1703854;84;20214;-70
2022/10/20 05:08:21;;;;;;;;;;;;;;;3.99;76.19;99761.23;1675691;84;20091;-70
2022/10/20 05:10:47;;;;;;;;;;;;;;;4.16;76.17;99753.66;1685400;84;20107;-72
2022/10/20 05:13:15;;;;;;;;;;;;;;;4.38;76.12;99754.05;1682036;84;20453;-69
2022/10/20 05:15:42;;;;;;;;;;;;;;;4.62;76.03;99763.08;1686174;85;21168;-71
2022/10/20 05:18:08;;;;;;;;;;;;;;;4.88;75.83;99757.33;1681232;84;20109;-70
2022/10/20 05:20:37;;;;;;;;;;;;;;;5.14;75.43;99755.14;1681777;84;20103;-72
2022/10/20 05:23:03;;;;;;;;;;;;;;;5.39;74.86;99762.67;1688896;84;20453;-70
2022/10/20 05:25:30;;;;;;;;;;;;;;;5.62;74.22;99767.29;1692943;84;20434;-69
2022/10/20 05:27:56;;;;;;;;;;;;;;;5.85;73.79;99776.73;1688701;84;21108;-70
2022/10/20 05:30:23;;;;;;;;;;;;;;;6.10;73.27;99774.92;1695965;84;20166;-71
2022/10/20 05:32:49;;;;;;;;;;;;;;;6.34;72.66;99775.05;1680309;84;20100;-70
2022/10/20 05:35:16;;;;;;;;;;;;;;;6.51;71.68;99782.33;1680016;84;20128;-69
2022/10/20 05:37:42;;;;;;;;;;;;;;;6.62;70.58;99777.73;1678993;84;20101;-71
2022/10/20 05:40:09;;;;;;;;;;;;;;;6.70;69.82;99778.39;1686989;84;21341;-70
2022/10/20 05:42:37;;;;;;;;;;;;;;;6.83;69.29;99781.56;1687528;84;20112;-72
2022/10/20 05:45:04;;;;;;;;;;;;;;;6.99;68.63;99781.84;1680313;84;20164;-70
2022/10/20 05:47:32;;;;;;;;;;;;;;;7.18;68.01;99788.45;1680931;84;20427;-72
2022/10/20 05:49:58;;;;;;;;;;;;;;;7.39;67.07;99789.59;1687601;84;20116;-70
2022/10/20 05:52:25;;;;;;;;;;;;;;;7.60;66.35;99788.92;1686037;85;21194;-72
2022/10/20 05:54:51;;;;;;;;;;;;;;;7.80;65.26;99787.87;1687613;85;20127;-73
2022/10/20 05:57:17;;;;;;;;;;;;;;;8.01;64.40;99798.23;1687732;84;20091;-71
2022/10/20 05:59:43;;;;;;;;;;;;;;;8.25;63.81;99797.70;1687943;84;20139;-68
2022/10/20 06:02:10;;;;;;;;;;;;;;;8.56;62.94;99802.58;1661991;84;20080;-70
2022/10/20 06:04:36;;;;;;;;;;;;;;;8.91;61.99;99808.41;1687691;84;20496;-73
2022/10/20 06:07:04;;;;;;;;;;;;;;;9.24;60.96;99805.53;1687456;84;20567;-76
2022/10/20 06:09:31;;;;;;;;;;;;;;;9.57;59.96;99807.95;1681888;83;20095;-71
2022/10/20 06:11:59;;;;;;;;;;;;;;;9.92;58.69;99811.80;1670305;84;20421;-74
2022/10/20 06:14:26;;;;;;;;;;;;;;;10.22;57.39;99811.30;1689516;84;20183;-75
2022/10/20 06:16:52;;;;;;;;;;;;;;;10.54;56.65;99816.75;1687833;84;21171;-73
2022/10/20 06:19:19;;;;;;;;;;;;;;;10.92;55.36;99813.17;1672041;84;20089;-71
2022/10/20 06:21:47;;;;;;;;;;;;;;;11.33;54.39;99816.19;1680651;84;20123;-73
2022/10/20 06:24:13;;;;;;;;;;;;;;;11.73;53.11;99818.83;1678599;84;20119;-74
2022/10/20 06:26:39;;;;;;;;;;;;;;;12.11;51.97;99815.91;1684515;84;20093;-71
2022/10/20 06:29:08;;;;;;;;;;;;;;;12.46;50.89;99823.12;1689592;84;21579;-74
2022/10/20 06:31:37;;;;;;;;;;;;;;;12.84;50.06;99823.07;1688289;84;20094;-73
2022/10/20 06:34:06;;;;;;;;;;;;;;;13.22;48.79;99826.66;1676089;84;20126;-74
2022/10/20 06:36:35;;;;;;;;;;;;;;;13.46;47.85;99830.98;1670397;84;20781;-75
2022/10/20 06:39:03;;;;;;;;;;;;;;;13.83;47.30;99820.78;1687881;84;20087;-76
2022/10/20 06:41:31;;;;;;;;;;;;;;;14.21;45.87;99833.05;1693835;84;20428;-70
2022/10/20 06:43:59;;;;;;;;;;;;;;;14.43;45.16;99834.84;1696707;83;20122;-73
2022/10/20 06:46:30;;;;;;;;;;;;;;;14.65;44.18;99827.17;1670450;84;20147;-71
2022/10/20 06:48:59;;;;;;;;;;;;;;;14.76;43.53;99833.89;1694176;84;20109;-75
2022/10/20 06:51:25;;;;;;;;;;;;;;;14.92;42.80;99835.52;1685481;84;20162;-73
2022/10/20 06:53:51;;;;;;;;;;;;;;;15.02;42.35;99838.71;1701061;84;21881;-73
2022/10/20 06:56:19;;;;;;;;;;;;;;;15.19;42.00;99842.32;1713356;84;20424;-72
2022/10/20 06:58:47;;;;;;;;;;;;;;;15.33;41.52;99831.19;1675584;83;20098;-72
2022/10/20 07:01:18;;;;;;;;;;;;;;;15.46;41.21;99834.02;1684005;84;20171;-73
2022/10/20 07:03:45;;;;;;;;;;;;;;;15.69;41.13;99840.02;1705669;84;20089;-73
2022/10/20 07:06:14;;;;;;;;;;;;;;;15.92;40.07;99841.95;1688857;84;21576;-75
2022/10/20 07:08:40;;;;;;;;;;;;;;;16.04;39.62;99839.03;1712647;83;20300;-73
2022/10/20 07:11:08;;;;;;;;;;;;;;;16.17;39.34;99849.52;1694014;84;20445;-75
2022/10/20 07:13:36;;;;;;;;;;;;;;;16.21;38.78;99845.43;1694197;84;20131;-75
2022/10/20 07:16:03;;;;;;;;;;;;;;;16.27;38.74;99845.98;1676772;84;20102;-76
2022/10/20 07:18:29;;;;;;;;;;;;;;;16.36;38.35;99853.67;1674704;85;21211;-74
2022/10/20 07:21:01;;;;;;;;;;;;;;;16.36;37.93;99845.62;1682131;85;20108;-73
2022/10/20 07:23:29;;;;;;;;;;;;;;;16.31;38.03;99848.58;1681977;85;20422;-71
2022/10/20 07:26:15;;;;;;;;;;;;;;;16.33;37.73;99852.72;1682284;85;20155;-73
2022/10/20 07:28:43;;;;;;;;;;;;;;;16.41;37.85;99855.76;1682308;85;20423;-75
2022/10/20 07:31:13;;;;;;;;;;;;;;;16.58;37.83;99853.91;1682236;85;21132;-74
2022/10/20 07:33:39;;;;;;;;;;;;;;;16.63;37.21;99854.13;1681291;85;20096;-73
2022/10/20 07:36:16;;;;;;;;;;;;;;;16.57;37.10;99853.61;1642907;85;20144;-73
2022/10/20 07:38:42;;;;;;;;;;;;;;;16.62;37.03;99866.44;1682402;85;20103;-75
2022/10/20 07:41:09;;;;;;;;;;;;;;;16.62;36.89;99865.09;1682325;85;20124;-73
2022/10/20 07:43:37;;;;;;;;;;;;;;;16.54;36.49;99857.20;1682254;85;20210;-75
2022/10/20 07:46:04;;;;;;;;;;;;;;;16.45;36.50;99861.87;1682273;85;20131;-73
2022/10/20 07:48:32;;;;;;;;;;;;;;;16.44;36.46;99859.39;1682338;85;20092;-71
2022/10/20 07:51:29;;;;;;;;;;;;;;;16.46;36.44;99855.98;1682453;85;20100;-73
2022/10/20 07:53:57;;;;;;;;;;;;;;;16.41;36.07;99857.94;1682592;85;20123;-71
2022/10/20 07:56:26;;;;;;;;;;;;;;;16.33;35.97;99866.66;1682387;85;21141;-71
2022/10/20 07:58:53;;;;;;;;;;;;;;;16.26;36.11;99864.45;1682570;85;20104;-75
2022/10/20 08:01:19;;;;;;;;;;;;;;;16.25;35.87;99864.13;1682206;85;20131;-73
2022/10/20 08:03:45;;;;;;;;;;;;;;;16.16;36.12;99866.16;1682298;85;20088;-74
2022/10/20 08:06:12;;;;;;;;;;;;;;;16.25;36.13;99870.84;1682282;85;20208;-71
2022/10/20 08:08:38;;;;;;;;;;;;;;;16.39;36.05;99872.08;1682238;85;21148;-72
2022/10/20 08:11:04;;;;;;;;;;;;;;;16.47;35.49;99865.20;1684866;84;20136;-73
2022/10/20 08:13:30;;;;;;;;;;;;;;;16.52;35.37;99869.50;1686996;84;20156;-74
2022/10/20 08:15:57;;;;;;;;;;;;;;;16.58;35.18;99870.56;1708710;84;20176;-75
2022/10/20 08:18:23;;;;;;;;;;;;;;;16.61;35.12;99869.63;1712401;84;20162;-73
2022/10/20 08:20:50;;;;;;;;;;;;;;;16.71;34.98;99867.94;1674909;84;21168;-75
2022/10/20 08:23:16;;;;;;;;;;;;;;;16.78;34.67;99873.32;1690894;85;20116;-74
2022/10/20 08:25:42;;;;;;;;;;;;;;;16.83;34.33;99872.20;1690978;85;20087;-71
2022/10/20 08:28:08;;;;;;;;;;;;;;;16.90;34.12;99878.42;1664052;85;20102;-72
2022/10/20 08:30:35;;;;;;;;;;;;;;;17.04;34.39;99873.42;1663160;85;20126;-75
2022/10/20 08:33:01;;;;;;;;;;;;;;;17.11;33.93;99864.34;1669921;84;21256;-75
2022/10/20 08:35:27;;;;;;;;;;;;;;;17.10;33.95;99862.67;1685678;84;20111;-76
2022/10/20 08:37:53;;;;;;;;;;;;;;;17.21;33.54;99865.28;1694808;84;20605;-72
2022/10/20 08:40:23;;;;;;;;;;;;;;;17.25;33.03;99863.86;1680468;85;20400;-73
2022/10/20 08:42:49;;;;;;;;;;;;;;;17.28;33.09;99870.98;1688025;84;20451;-75
2022/10/20 08:45:20;;;;;;;;;;;;;;;17.40;32.88;99871.73;1686363;84;21213;-73
2022/10/20 08:47:54;;;;;;;;;;;;;;;17.50;32.60;99876.19;1678209;85;20429;-73
2022/10/20 08:50:21;;;;;;;;;;;;;;;17.56;32.41;99866.00;1671242;85;20087;-73
2022/10/20 08:52:53;;;;;;;;;;;;;;;17.66;32.17;99868.59;1676825;85;20082;-76
2022/10/20 08:55:31;;;;;;;;;;;;;;;17.76;32.19;99873.05;1663118;85;20082;-74
2022/10/20 08:58:03;;;;;;;;;;;;;;;17.88;31.92;99874.61;1663112;85;20592;-72
2022/10/20 09:00:30;;;;;;;;;;;;;;;17.98;31.47;99872.83;1662926;85;20177;-75
2022/10/20 09:03:00;;;;;;;;;;;;;;;18.13;31.51;99874.27;1683614;84;20122;-73
2022/10/20 09:05:28;;;;;;;;;;;;;;;18.31;31.30;99875.78;1673911;84;20171;-75
2022/10/20 09:07:56;;;;;;;;;;;;;;;18.52;30.78;99862.60;1678579;84;20094;-76
2022/10/20 09:10:36;;;;;;;;;;;;;;;18.71;29.79;99873.84;1662095;84;21104;-74
2022/10/20 09:13:06;;;;;;;;;;;;;;;18.72;29.43;99867.94;1675776;84;20151;-74
2022/10/20 09:15:32;;;;;;;;;;;;;;;18.65;29.74;99875.20;1667567;84;20481;-74
2022/10/20 09:18:02;;;;;;;;;;;;;;;18.67;29.31;99873.94;1673628;84;20121;-74
2022/10/20 09:20:32;;;;;;;;;;;;;;;18.59;29.25;99876.06;1694475;84;20486;-74
2022/10/20 09:22:59;;;;;;;;;;;;;;;18.63;29.52;99884.02;1694408;84;21811;-75
2022/10/20 09:25:26;;;;;;;;;;;;;;;18.75;29.33;99880.45;1694368;84;20096;-75
2022/10/20 09:27:54;;;;;;;;;;;;;;;18.84;29.49;99878.34;1670868;84;20097;-72
2022/10/20 09:30:24;;;;;;;;;;;;;;;18.99;28.67;99881.59;1694299;84;20168;-76
2022/10/20 09:32:51;;;;;;;;;;;;;;;19.06;28.13;99882.38;1694319;84;20104;-72
2022/10/20 09:35:24;;;;;;;;;;;;;;;19.02;27.96;99875.77;1694328;84;21148;-73
2022/10/20 09:37:55;;;;;;;;;;;;;;;19.10;27.99;99883.10;1694326;84;20419;-74
2022/10/20 09:40:23;;;;;;;;;;;;;;;19.25;27.60;99873.36;1694367;84;20089;-73
2022/10/20 09:42:55;;;;;;;;;;;;;;;19.41;27.36;99868.83;1687658;84;20093;-74
2022/10/20 09:45:27;;;;;;;;;;;;;;;19.53;26.97;99874.34;1694026;84;20146;-76
2022/10/20 09:48:10;;;;;;;;;;;;;;;19.65;26.96;99880.70;1694417;84;21170;-72
2022/10/20 09:50:38;;;;;;;;;;;;;;;19.83;27.06;99874.02;1682992;84;20125;-73
2022/10/20 09:53:06;;;;;;;;;;;;;;;19.94;26.72;99877.88;1694344;84;20189;-75
2022/10/20 09:55:34;;;;;;;;;;;;;;;20.04;26.38;99878.20;1694249;84;20383;-74
2022/10/20 09:58:02;;;;;;;;;;;;;;;20.00;26.16;99879.67;1694412;84;20073;-75
2022/10/20 10:00:36;;;;;;;;;;;;;;;19.93;26.25;99873.52;1694378;84;21328;-72
2022/10/20 10:03:21;;;;;;;;;;;;;;;19.76;26.72;99876.47;1694291;84;20117;-74
2022/10/20 10:05:53;;;;;;;;;;;;;;;19.61;27.37;99883.00;1694484;84;20117;-75
2022/10/20 10:08:20;;;;;;;;;;;;;;;19.45;27.60;99884.08;1694298;84;20364;-74
2022/10/20 10:10:58;;;;;;;;;;;;;;;19.22;27.90;99883.23;1698974;83;20118;-75
2022/10/20 10:13:27;;;;;;;;;;;;;;;18.95;28.12;99884.42;1679658;84;21180;-71
2022/10/20 10:16:02;;;;;;;;;;;;;;;18.73;28.79;99883.05;1672174;84;20510;-73
2022/10/20 10:18:29;;;;;;;;;;;;;;;18.64;28.89;99878.41;1705422;84;20101;-75
2022/10/20 10:20:59;;;;;;;;;;;;;;;18.52;29.00;99878.77;1667417;84;20305;-75
2022/10/20 10:23:26;;;;;;;;;;;;;;;18.36;29.29;99880.53;1677417;85;20096;-75
2022/10/20 10:25:52;;;;;;;;;;;;;;;18.21;29.37;99876.73;1697693;84;21238;-76
2022/10/20 10:28:29;;;;;;;;;;;;;;;18.11;29.73;99880.38;1674896;85;20092;-74
2022/10/20 10:31:21;;;;;;;;;;;;;;;18.01;29.76;99879.15;1668316;85;20122;-73
2022/10/20 10:33:54;;;;;;;;;;;;;;;17.91;30.06;99883.58;1679312;85;20092;-73
2022/10/20 10:36:24;;;;;;;;;;;;;;;17.86;29.81;99883.38;1668988;85;20139;-73
2022/10/20 10:38:50;;;;;;;;;;;;;;;17.73;29.78;99889.59;1699100;84;21153;-74
2022/10/20 10:41:35;;;;;;;;;;;;;;;17.66;30.14;99890.62;1688108;84;20095;-75
2022/10/20 10:44:23;;;;;;;;;;;;;;;17.66;30.05;99881.21;1671508;84;20154;-75
2022/10/20 10:47:02;;;;;;;;;;;;;;;17.55;30.06;99883.99;1667286;85;20456;-75
2022/10/20 10:49:52;;;;;;;;;;;;;;;17.42;30.24;99884.45;1691012;84;20088;-72
2022/10/20 10:52:39;;;;;;;;;;;;;;;17.25;30.00;99883.52;1695188;84;21145;-74
2022/10/20 10:55:21;;;;;;;;;;;;;;;17.04;30.18;99885.00;1689287;84;20087;-71
2022/10/20 10:58:06;;;;;;;;;;;;;;;16.87;30.40;99886.91;1675033;85;20087;-71
2022/10/20 11:00:48;;;;;;;;;;;;;;;16.65;30.54;99887.53;1685311;85;20154;-71
2022/10/20 11:03:33;;;;;;;;;;;;;;;16.52;31.02;99878.03;1688899;84;20132;-72
2022/10/20 11:06:12;;;;;;;;;;;;;;;16.44;31.36;99878.19;1690920;84;21052;-72
2022/10/20 11:08:45;;;;;;;;;;;;;;;16.38;31.30;99878.97;1681715;85;20095;-75
2022/10/20 11:11:27;;;;;;;;;;;;;;;16.31;31.25;99879.45;1662960;85;20078;-72
2022/10/20 11:14:06;;;;;;;;;;;;;;;16.22;31.40;99875.25;1659051;85;20079;-71
2022/10/20 11:16:38;;;;;;;;;;;;;;;16.12;31.60;99872.09;1676337;85;20127;-72
2022/10/20 11:19:11;;;;;;;;;;;;;;;16.08;31.74;99869.50;1667631;85;21149;-74
2022/10/20 11:22:10;;;;;;;;;;;;;;;16.06;32.08;99874.54;1663021;85;20094;-72
2022/10/20 11:25:08;;;;;;;;;;;;;;;16.08;32.11;99872.19;1685655;84;20094;-75
2022/10/20 11:27:35;;;;;;;;;;;;;;;16.03;32.17;99870.90;1670458;84;20467;-72
2022/10/20 11:30:18;;;;;;;;;;;;;;;15.98;32.17;99867.17;1662994;85;20111;-72
2022/10/20 11:32:48;;;;;;;;;;;;;;;16.01;32.37;99860.88;1667361;85;21132;-75
2022/10/20 11:35:41;;;;;;;;;;;;;;;16.02;32.03;99863.06;1690874;85;20123;-73
2022/10/20 11:38:47;;;;;;;;;;;;;;;16.03;32.06;99862.84;1694940;84;20095;-74
2022/10/20 11:41:17;;;;;;;;;;;;;;;16.07;32.05;99864.64;1689257;84;20193;-74
2022/10/20 11:43:51;;;;;;;;;;;;;;;16.06;32.06;99862.46;1671688;84;20152;-73
2022/10/20 11:46:21;;;;;;;;;;;;;;;16.08;32.25;99862.28;1659463;85;21177;-72
2022/10/20 11:48:52;;;;;;;;;;;;;;;16.05;32.23;99861.33;1673004;84;20118;-73
2022/10/20 11:51:34;;;;;;;;;;;;;;;15.99;32.49;99859.42;1705412;84;20415;-71
2022/10/20 11:54:22;;;;;;;;;;;;;;;15.98;32.54;99859.92;1690897;84;20114;-74
2022/10/20 11:56:58;;;;;;;;;;;;;;;15.92;32.34;99863.41;1664857;85;20124;-72
2022/10/20 12:00:03;;;;;;;;;;;;;;;15.81;32.42;99861.77;1678939;85;21131;-73
2022/10/20 12:02:50;;;;;;;;;;;;;;;15.76;32.69;99858.84;1672746;85;20133;-73
2022/10/20 12:05:29;;;;;;;;;;;;;;;15.74;32.01;99866.25;1682790;85;20075;-75
2022/10/20 12:08:11;;;;;;;;;;;;;;;15.65;31.98;99872.77;1663007;85;20102;-74
2022/10/20 12:10:50;;;;;;;;;;;;;;;15.51;32.26;99863.80;1670654;83;20118;-74
2022/10/20 12:13:38;;;;;;;;;;;;;;;15.39;32.58;99868.80;1721223;83;21816;-73
2022/10/20 12:16:04;;;;;;;;;;;;;;;15.29;32.40;99872.81;1678934;83;20150;-73
2022/10/20 12:18:32;;;;;;;;;;;;;;;15.12;32.61;99872.75;1681887;84;20131;-75
2022/10/20 12:21:03;;;;;;;;;;;;;;;15.04;33.24;99869.69;1690408;84;20558;-74
2022/10/20 12:23:48;;;;;;;;;;;;;;;15.02;33.48;99872.20;1698141;83;20101;-72
2022/10/20 12:26:33;;;;;;;;;;;;;;;14.96;33.62;99873.81;1690905;85;21156;-75
2022/10/20 12:29:00;;;;;;;;;;;;;;;14.90;33.99;99877.23;1704885;83;20424;-72
2022/10/20 12:32:03;;;;;;;;;;;;;;;14.84;33.80;99884.67;1686364;83;20085;-72
2022/10/20 12:34:39;;;;;;;;;;;;;;;14.67;33.98;99885.91;1720456;83;20121;-76
2022/10/20 12:37:10;;;;;;;;;;;;;;;14.50;34.11;99891.97;1690985;84;20441;-74
2022/10/20 12:39:36;;;;;;;;;;;;;;;14.34;33.96;99884.65;1658910;85;21089;-74
2022/10/20 12:42:07;;;;;;;;;;;;;;;14.19;34.27;99881.91;1675133;84;20090;-73
2022/10/20 12:44:41;;;;;;;;;;;;;;;14.10;34.51;99897.22;1696514;84;20104;-78
2022/10/20 12:47:09;;;;;;;;;;;;;;;14.00;34.70;99896.65;1690831;84;20119;-72
2022/10/20 12:49:39;;;;;;;;;;;;;;;13.96;35.14;99898.54;1690870;84;20127;-74
2022/10/20 12:52:06;;;;;;;;;;;;;;;13.96;35.34;99894.53;1665207;85;21834;-73
2022/10/20 12:54:37;;;;;;;;;;;;;;;13.95;35.40;99899.04;1663088;85;20128;-75
2022/10/20 12:57:24;;;;;;;;;;;;;;;13.88;35.56;99903.97;1697529;84;20282;-71
2022/10/20 12:59:51;;;;;;;;;;;;;;;13.80;35.79;99905.38;1668184;85;20203;-72
2022/10/20 13:02:21;;;;;;;;;;;;;;;13.73;35.88;99907.11;1672319;84;20090;-73
2022/10/20 13:04:57;;;;;;;;;;;;;;;13.67;35.80;99915.84;1682362;84;21134;-76
2022/10/20 13:07:46;;;;;;;;;;;;;;;13.60;35.87;99915.24;1682529;85;20118;-74
2022/10/20 13:10:36;;;;;;;;;;;;;;;13.52;35.93;99911.30;1663026;85;20114;-73
2022/10/20 13:13:07;;;;;;;;;;;;;;;13.43;36.19;99917.69;1664742;85;20090;-77